Latest Coastal Weather Observations for Sunshine Coast Airport

IDQ60701

Issued at 1:52 pm EST Monday 27 January 2020 (issued every 10 minutes, with the page automatically refreshed every 10 minutes)

About coastal observations | Map of coastal stations | Coastal observations for QLD | Marine services | Other Formats
Station Details ID: 040861 Name: SUNSHINE COAST AIRPORT Lat: -26.60 Lon: 153.09 Height: 3.42 m
Data from the previous 72 hours. | See also: Recent months at Sunshine Coast Airport
Date/Time
EST
Wind Sea
Height
m
Swell Vis
km
Cloud Weather Temp
°C
Press
hPa
Rain since
9am
mm
Dir  Spd
kts
Gust
kts
Height
m
Period
s
Dir
27/01:30pm E 9 12 - - - - 10 - - 28.2 1012.9 0.0
27/01:00pm E 9 10 - - - - 10 - - 28.3 1013.2 0.0
27/12:30pm E 8 10 - - - - 10 - - 28.8 1013.6 0.0
27/12:00pm E 10 13 - - - - 10 Mostly clear - 28.6 1013.8 0.0
27/11:30am ESE 8 11 - - - - 10 Partly cloudy - 28.0 1014.0 0.0
27/11:00am E 8 10 - - - - 10 Partly cloudy - 28.1 1014.1 0.0
27/10:30am ESE 7 9 - - - - 10 Partly cloudy - 28.1 1014.3 0.0
27/10:00am ESE 7 9 - - - - 10 Partly cloudy - 28.1 1014.4 0.0
27/09:30am E 7 9 - - - - 10 - - 28.0 1014.4 0.0
27/09:00am E 7 9 - - - - 10 - - 27.7 1014.3 1.4
27/08:30am E 8 10 - - - - 10 Partly cloudy - 27.5 1014.0 1.4
27/08:00am ENE 7 9 - - - - 10 Partly cloudy - 27.1 1014.0 1.4
27/07:30am ENE 7 8 - - - - 10 Partly cloudy - 26.8 1013.9 1.4
27/07:00am ENE 6 9 - - - - 10 Partly cloudy - 26.1 1013.6 1.4
27/06:30am WSW 3 4 - - - - 10 Cloudy - 23.5 1013.1 1.4
27/06:00am WSW 3 4 - - - - 10 Cloudy - 22.9 1013.0 1.4
27/05:30am WSW 4 4 - - - - 10 Partly cloudy - 22.6 1012.7 1.4
27/05:00am NE 7 9 - - - - 10 Partly cloudy - 24.7 1012.4 1.4
27/04:30am NE 7 9 - - - - 10 Partly cloudy - 24.6 1012.3 1.4
27/04:00am NE 8 10 - - - - 10 - - 24.9 1012.1 1.4
27/03:30am NE 9 11 - - - - 10 Partly cloudy - 25.0 1012.0 1.4
27/03:00am NE 9 11 - - - - 10 - - 24.9 1011.9 1.4
27/02:30am NE 8 10 - - - - 10 - - 25.0 1012.4 1.4
27/02:00am NE 9 11 - - - - 10 - - 25.1 1012.7 1.4
27/01:30am NE 8 10 - - - - 10 Partly cloudy - 25.1 1012.9 1.4
27/01:00am NE 9 11 - - - - 10 Partly cloudy - 25.3 1013.2 1.4
27/12:30am NE 9 11 - - - - 10 Partly cloudy - 25.4 1013.5 1.4
27/12:00am NE 9 12 - - - - 10 Mostly cloudy - 25.5 1013.9 1.4
 
Date/Time
EST
Wind Sea
Height
m
Swell Vis
km
Cloud Weather Temp
°C
Press
hPa
Rain since
9am
mm
Dir  Spd
kts
Gust
kts
Height
m
Period
s
Dir
26/11:30pm NE 9 12 - - - - 10 Partly cloudy - 25.7 1014.2 1.4
26/11:00pm NE 9 13 - - - - 10 Partly cloudy - 25.5 1014.4 1.4
26/10:30pm NE 9 11 - - - - 10 Partly cloudy - 25.7 1014.5 1.4
26/10:00pm ENE 7 9 - - - - 10 Cloudy - 26.0 1014.5 1.4
26/09:30pm NE 9 11 - - - - 10 Partly cloudy - 25.9 1014.3 1.4
26/09:00pm ENE 10 12 - - - - 10 Partly cloudy - 25.8 1014.2 1.4
26/08:30pm NE 9 11 - - - - 10 Partly cloudy - 26.0 1013.9 1.4
26/08:00pm ENE 8 10 - - - - 10 Partly cloudy - 25.9 1013.4 1.4
26/07:30pm ENE 9 11 - - - - 10 Cloudy - 26.2 1013.2 1.4
26/07:00pm ENE 8 10 - - - - 10 Partly cloudy - 26.2 1013.1 1.4
26/06:30pm E 6 9 - - - - 10 Partly cloudy - 26.4 1012.8 1.4
26/06:00pm ENE 8 10 - - - - 10 Mostly cloudy - 26.7 1012.4 1.4
26/05:30pm ENE 8 10 - - - - 10 Partly cloudy - 26.8 1012.4 1.4
26/05:00pm ENE 9 11 - - - - 10 - - 27.7 1012.2 1.4
26/04:30pm ENE 8 10 - - - - 10 - - 27.1 1012.2 1.4
26/04:00pm ENE 9 10 - - - - 10 - - 28.4 1012.3 1.4
26/03:30pm ENE 10 11 - - - - 10 - - 28.4 1012.5 1.4
26/03:00pm ENE 9 11 - - - - 10 Partly cloudy - 29.0 1012.7 1.4
26/02:30pm ENE 10 12 - - - - 10 - - 28.9 1012.9 1.4
26/02:00pm ENE 9 11 - - - - 10 - - 28.9 1013.1 1.4
26/01:30pm ENE 10 12 - - - - 10 - - 29.9 1013.3 1.4
26/01:00pm ENE 9 11 - - - - 10 Partly cloudy - 29.4 1013.5 1.4
26/12:30pm ENE 9 12 - - - - 10 - - 29.7 1013.7 1.4
26/12:00pm NE 10 12 - - - - 10 - - 29.6 1014.1 1.4
26/11:30am NE 9 11 - - - - 10 Partly cloudy - 28.9 1014.2 1.4
26/11:00am ENE 7 10 - - - - 10 Partly cloudy - 28.3 1014.2 1.4
26/10:30am NNE 4 7 - - - - 10 Partly cloudy - 27.3 1014.3 1.4
26/10:00am CALM 0 4 - - - - 10 Partly cloudy - 25.2 1014.5 1.4
26/09:30am ENE 7 10 - - - - 5 Partly cloudy - 24.0 1014.6 0.8
26/09:05am NE 14 18 - - - - 6 Partly cloudy - 23.8 1014.5 0.4
26/09:00am NE 15 18 - - - - 10 Cloudy - 24.7 1014.4 0.0
26/08:57am NE 15 19 - - - - 10 Partly cloudy - 25.0 1014.3 0.0
26/08:30am ENE 8 9 - - - - 10 Partly cloudy - 27.3 1014.2 0.0
26/08:00am ENE 7 8 - - - - 10 Partly cloudy - 26.7 1014.3 0.0
26/07:30am ENE 6 8 - - - - 10 Cloudy - 26.4 1014.2 0.0
26/07:00am NE 7 10 - - - - 10 Partly cloudy - 26.5 1013.9 0.0
26/06:30am ENE 12 15 - - - - 10 Partly cloudy - 25.3 1013.5 0.0
26/06:00am ENE 6 9 - - - - 10 Partly cloudy Rain 24.7 1013.2 0.0
26/05:30am NE 6 7 - - - - 10 Partly cloudy - 23.7 1013.0 0.0
26/05:00am WSW 4 5 - - - - 10 - - 22.9 1012.7 0.0
26/04:30am WSW 3 4 - - - - 10 Partly cloudy - 23.0 1012.5 0.0
26/04:00am NW 3 5 - - - - 10 - - 23.0 1012.3 0.0
26/03:30am NNE 4 5 - - - - 10 - - 23.1 1012.2 0.0
26/03:00am NE 5 6 - - - - 10 Partly cloudy - 23.8 1012.4 0.0
26/02:30am NNE 5 7 - - - - 10 Partly cloudy - 23.9 1012.5 0.0
26/02:00am NE 7 9 - - - - 10 Partly cloudy - 24.6 1012.5 0.0
26/01:30am NE 7 8 - - - - 10 Partly cloudy - 24.5 1012.9 0.0
26/01:00am N 3 4 - - - - 10 Partly cloudy - 23.7 1013.2 0.0
26/12:41am N 2 3 - - - - 10 - - 23.8 1013.4 0.0
26/12:30am N 2 3 - - - - 5 Partly cloudy - 23.7 1013.4 0.0
26/12:02am N 3 4 - - - - 6 Partly cloudy - 24.1 1013.5 0.0
26/12:00am N 3 4 - - - - 9 Mostly cloudy - 24.1 1013.5 0.0
 
Date/Time
EST
Wind Sea
Height
m
Swell Vis
km
Cloud Weather Temp
°C
Press
hPa
Rain since
9am
mm
Dir  Spd
kts
Gust
kts
Height
m
Period
s
Dir
25/11:30pm N 3 3 - - - - 10 Partly cloudy - 24.0 1013.9 0.0
25/11:00pm N 3 4 - - - - 10 Partly cloudy - 24.1 1013.9 0.0
25/10:30pm NNE 5 7 - - - - 10 Partly cloudy - 24.3 1014.1 0.0
25/10:00pm NNE 6 7 - - - - 10 Partly cloudy - 24.5 1013.9 0.0
25/09:30pm NNE 7 9 - - - - 10 Partly cloudy - 25.1 1013.8 0.0
25/09:00pm NNE 6 8 - - - - 10 Cloudy - 24.9 1013.3 0.0
25/08:30pm NNE 6 7 - - - - 10 Partly cloudy - 25.2 1013.4 0.0
25/08:00pm NNE 8 9 - - - - 10 - - 25.4 1013.2 0.0
25/07:30pm NE 10 12 - - - - 10 - - 25.7 1012.8 0.0
25/07:00pm NE 10 12 - - - - 10 - - 25.7 1012.6 0.0
25/06:30pm NE 10 12 - - - - 10 Partly cloudy - 26.1 1012.5 0.0
25/06:00pm NE 9 12 - - - - 10 Partly cloudy - 26.3 1012.2 0.0
25/05:30pm NE 9 11 - - - - 10 - - 26.5 1011.8 0.0
25/05:00pm NE 8 10 - - - - 10 - - 27.0 1011.6 0.0
25/04:30pm NE 9 12 - - - - 10 - - 27.6 1011.6 0.0
25/04:00pm NE 11 14 - - - - 10 - - 27.7 1011.5 0.0
25/03:30pm NE 13 16 - - - - 10 - - 28.9 1011.4 0.0
25/03:00pm NE 11 14 - - - - 10 Partly cloudy - 28.9 1011.7 0.0
25/02:30pm NE 13 16 - - - - 10 - - 28.4 1011.6 0.0
25/02:00pm NE 12 15 - - - - 10 - - 27.8 1011.9 0.0
25/01:30pm NE 14 17 - - - - 10 - - 29.4 1011.8 0.0
25/01:00pm NE 14 16 - - - - 10 - - 29.3 1011.9 0.0
25/12:30pm NE 13 16 - - - - 10 - - 29.3 1012.3 0.0
25/12:00pm NE 14 17 - - - - 10 Mostly clear - 29.3 1012.7 0.0
25/11:30am NE 13 16 - - - - 10 Partly cloudy - 29.2 1012.9 0.0
25/11:00am NE 13 15 - - - - 10 Partly cloudy - 28.7 1013.1 0.0
25/10:30am NE 13 16 - - - - 10 Partly cloudy - 29.6 1013.2 0.0
25/10:00am NE 11 13 - - - - 10 - - 28.2 1013.2 0.0
25/09:30am NE 13 16 - - - - 10 Partly cloudy - 27.9 1012.9 0.0
25/09:00am NNE 11 14 - - - - 10 Partly cloudy - 28.8 1012.7 0.0
25/08:30am NE 7 8 - - - - 10 Partly cloudy - 26.5 1012.9 0.0
25/08:00am NNE 5 7 - - - - 8 Partly cloudy - 26.5 1013.0 0.0
25/07:30am N 5 7 - - - - 10 - - 26.5 1012.7 0.0
25/07:00am NNW 4 6 - - - - 10 - - 25.9 1012.5 0.0
25/06:30am NNW 5 6 - - - - 10 Partly cloudy - 25.2 1012.2 0.0
25/06:02am N 5 6 - - - - 10 Partly cloudy - 24.7 1012.0 0.0
25/06:00am N 5 6 - - - - 10 Mostly clear - 24.7 1011.9 0.0
25/05:30am NNE 5 5 - - - - 5 Partly cloudy - 24.5 1011.6 0.0
25/05:11am NNE 6 7 - - - - 6 Cloudy - 25.0 1011.6 0.0
25/05:00am NNE 5 6 - - - - 9 Partly cloudy - 25.3 1011.7 0.0
25/04:30am N 8 11 - - - - 10 Partly cloudy - 25.5 1011.3 0.0
25/04:00am N 8 9 - - - - 10 Cloudy - 25.5 1011.1 0.0
25/03:30am NNW 6 8 - - - - 10 Cloudy - 25.3 1011.2 0.0
25/03:00am N 7 9 - - - - 10 Mostly cloudy - 25.1 1011.1 0.0
25/02:30am N 7 8 - - - - 10 Partly cloudy - 25.0 1011.1 0.0
25/02:00am NNW 5 7 - - - - 10 Partly cloudy - 25.0 1011.3 0.0
25/01:30am NNW 6 7 - - - - 10 Cloudy - 24.8 1011.1 0.0
25/01:00am NW 5 7 - - - - 10 Partly cloudy - 24.7 1011.6 0.0
25/12:30am NNW 4 6 - - - - 10 Partly cloudy - 24.9 1011.9 0.0
25/12:29am NNW 4 6 - - - - 10 Partly cloudy - 24.9 1011.9 0.0
25/12:00am NNE 4 6 - - - - 3 Mostly clear - 24.9 1011.8 0.0
 
Date/Time
EST
Wind Sea
Height
m
Swell Vis
km
Cloud Weather Temp
°C
Press
hPa
Rain since
9am
mm
Dir  Spd
kts
Gust
kts
Height
m
Period
s
Dir
24/11:52pm NNE 6 9 - - - - 6 Partly cloudy - 25.0 1011.6 0.0
24/11:30pm N 6 7 - - - - 10 Cloudy - 25.1 1011.9 0.0
24/11:00pm N 6 7 - - - - 10 Partly cloudy - 24.8 1012.1 0.0
24/10:55pm N 6 7 - - - - 10 - - 24.9 1012.0 0.0
24/10:30pm NNE 5 5 - - - - 4 - - 24.8 1011.8 0.0
24/10:21pm NNE 5 5 - - - - 5 - - 24.9 1011.8 0.0
24/10:00pm N 6 9 - - - - 10 - - 25.3 1011.9 0.0
24/09:30pm N 8 11 - - - - 10 - - 25.7 1011.9 0.0
24/09:00pm N 10 15 - - - - 10 - - 25.8 1011.4 0.0
24/08:30pm N 11 15 - - - - 10 Partly cloudy - 25.8 1011.2 0.0
24/08:00pm N 11 15 - - - - 10 Partly cloudy - 25.9 1011.0 0.0
24/07:30pm NNE 11 17 - - - - 10 Partly cloudy - 25.9 1010.5 0.0
24/07:00pm NNE 12 18 - - - - 10 - - 26.1 1010.4 0.0
24/06:30pm N 11 16 - - - - 10 - - 26.3 1010.0 0.0
24/06:00pm NNE 12 17 - - - - 10 - - 26.5 1009.6 0.0
24/05:30pm NNE 14 17 - - - - 10 - - 26.8 1009.4 0.0
24/05:00pm NNE 16 20 - - - - 10 - - 27.2 1009.0 0.0
24/04:30pm NNE 16 22 - - - - 10 - - 27.6 1008.9 0.0
24/04:00pm NNE 15 20 - - - - 10 - - 27.5 1009.0 0.0
24/03:30pm NNE 15 20 - - - - 10 - - 28.1 1009.2 0.0
24/03:00pm NNE 16 19 - - - - 10 Mostly clear - 28.0 1009.6 0.0
24/02:30pm NNE 16 21 - - - - 10 - - 27.9 1009.7 0.0
24/02:00pm NNE 16 20 - - - - 10 - - 28.4 1010.0 0.0

Other formats

Comma delimited format used in spreadsheet applications
http://www.bom.gov.au/fwo/IDQ60701/IDQ60701.94569.axf

JavaScript Object Notation format (JSON) in row-major order
http://www.bom.gov.au/fwo/IDQ60701/IDQ60701.94569.json

Data quality

Most of these data are generated automatically and are frequently updated. Quality checks on data are not normally performed. It is possible for incorrect values to appear. Refer to information at About Latest Weather Observations and please check the disclaimer before using these data.